sensor_id;sensor_type;location;lat;lon;timestamp;P1;durP1;ratioP1;P2;durP2;ratioP2
9102;SDS011;4587;51.434;6.788;2023-04-25T00:00:26;11.40;;;4.37;;
9102;SDS011;4587;51.434;6.788;2023-04-25T00:02:52;10.30;;;4.80;;
9102;SDS011;4587;51.434;6.788;2023-04-25T00:05:17;11.97;;;4.60;;
9102;SDS011;4587;51.434;6.788;2023-04-25T00:07:44;15.77;;;5.57;;
9102;SDS011;4587;51.434;6.788;2023-04-25T00:10:11;11.83;;;4.53;;
9102;SDS011;4587;51.434;6.788;2023-04-25T00:12:37;11.47;;;5.27;;
9102;SDS011;4587;51.434;6.788;2023-04-25T00:15:04;13.93;;;4.53;;
9102;SDS011;4587;51.434;6.788;2023-04-25T00:17:30;9.90;;;5.10;;
9102;SDS011;4587;51.434;6.788;2023-04-25T00:19:56;10.77;;;4.53;;
9102;SDS011;4587;51.434;6.788;2023-04-25T00:22:23;14.30;;;6.50;;
9102;SDS011;4587;51.434;6.788;2023-04-25T00:24:49;13.57;;;7.17;;
9102;SDS011;4587;51.434;6.788;2023-04-25T00:27:15;16.27;;;7.33;;
9102;SDS011;4587;51.434;6.788;2023-04-25T00:29:41;18.60;;;8.20;;
9102;SDS011;4587;51.434;6.788;2023-04-25T00:32:06;24.53;;;9.17;;
9102;SDS011;4587;51.434;6.788;2023-04-25T00:34:32;18.97;;;8.10;;
9102;SDS011;4587;51.434;6.788;2023-04-25T00:36:58;18.30;;;8.60;;
9102;SDS011;4587;51.434;6.788;2023-04-25T00:39:26;15.23;;;7.40;;
9102;SDS011;4587;51.434;6.788;2023-04-25T00:41:52;21.63;;;8.40;;
9102;SDS011;4587;51.434;6.788;2023-04-25T00:44:19;21.23;;;8.30;;
9102;SDS011;4587;51.434;6.788;2023-04-25T00:46:46;17.67;;;8.40;;
9102;SDS011;4587;51.434;6.788;2023-04-25T00:49:13;19.63;;;8.60;;
9102;SDS011;4587;51.434;6.788;2023-04-25T00:51:41;20.57;;;8.67;;
9102;SDS011;4587;51.434;6.788;2023-04-25T00:54:07;19.53;;;7.83;;
9102;SDS011;4587;51.434;6.788;2023-04-25T00:56:33;14.47;;;7.20;;
9102;SDS011;4587;51.434;6.788;2023-04-25T00:58:58;12.80;;;5.97;;
9102;SDS011;4587;51.434;6.788;2023-04-25T01:01:24;16.00;;;5.80;;
9102;SDS011;4587;51.434;6.788;2023-04-25T01:03:50;13.63;;;5.30;;
9102;SDS011;4587;51.434;6.788;2023-04-25T01:06:17;12.50;;;5.60;;
9102;SDS011;4587;51.434;6.788;2023-04-25T01:08:43;18.63;;;5.17;;
9102;SDS011;4587;51.434;6.788;2023-04-25T01:11:08;14.97;;;5.90;;
9102;SDS011;4587;51.434;6.788;2023-04-25T01:13:37;11.13;;;5.90;;
9102;SDS011;4587;51.434;6.788;2023-04-25T01:16:03;13.57;;;5.27;;
9102;SDS011;4587;51.434;6.788;2023-04-25T01:18:29;12.83;;;5.50;;
9102;SDS011;4587;51.434;6.788;2023-04-25T01:20:55;14.30;;;5.40;;
9102;SDS011;4587;51.434;6.788;2023-04-25T01:23:23;13.43;;;5.53;;
9102;SDS011;4587;51.434;6.788;2023-04-25T01:25:48;9.80;;;5.10;;
9102;SDS011;4587;51.434;6.788;2023-04-25T01:28:14;12.33;;;5.10;;
9102;SDS011;4587;51.434;6.788;2023-04-25T01:30:41;12.70;;;5.23;;
9102;SDS011;4587;51.434;6.788;2023-04-25T01:33:07;12.67;;;5.53;;
9102;SDS011;4587;51.434;6.788;2023-04-25T01:35:34;13.60;;;5.53;;
9102;SDS011;4587;51.434;6.788;2023-04-25T01:37:59;14.03;;;5.40;;
9102;SDS011;4587;51.434;6.788;2023-04-25T01:40:25;12.07;;;5.03;;
9102;SDS011;4587;51.434;6.788;2023-04-25T01:42:52;11.37;;;4.80;;
9102;SDS011;4587;51.434;6.788;2023-04-25T01:45:18;14.27;;;5.40;;
9102;SDS011;4587;51.434;6.788;2023-04-25T01:47:44;10.00;;;5.20;;
9102;SDS011;4587;51.434;6.788;2023-04-25T01:50:14;8.57;;;4.67;;
9102;SDS011;4587;51.434;6.788;2023-04-25T01:52:41;9.73;;;4.93;;
9102;SDS011;4587;51.434;6.788;2023-04-25T01:55:06;13.30;;;5.33;;
9102;SDS011;4587;51.434;6.788;2023-04-25T01:57:32;14.77;;;5.47;;
9102;SDS011;4587;51.434;6.788;2023-04-25T01:59:59;9.53;;;5.40;;
9102;SDS011;4587;51.434;6.788;2023-04-25T02:02:27;11.30;;;5.17;;
9102;SDS011;4587;51.434;6.788;2023-04-25T02:04:53;12.07;;;5.83;;
9102;SDS011;4587;51.434;6.788;2023-04-25T02:07:19;12.73;;;5.90;;
9102;SDS011;4587;51.434;6.788;2023-04-25T02:09:46;10.90;;;5.67;;
9102;SDS011;4587;51.434;6.788;2023-04-25T02:12:11;13.23;;;5.60;;
9102;SDS011;4587;51.434;6.788;2023-04-25T02:14:37;12.20;;;5.70;;
9102;SDS011;4587;51.434;6.788;2023-04-25T02:17:03;11.33;;;5.50;;
9102;SDS011;4587;51.434;6.788;2023-04-25T02:19:28;10.97;;;5.57;;
9102;SDS011;4587;51.434;6.788;2023-04-25T02:21:54;13.63;;;5.90;;
9102;SDS011;4587;51.434;6.788;2023-04-25T02:24:22;11.53;;;5.67;;
9102;SDS011;4587;51.434;6.788;2023-04-25T02:26:47;16.20;;;5.80;;
9102;SDS011;4587;51.434;6.788;2023-04-25T02:29:14;12.03;;;5.50;;
9102;SDS011;4587;51.434;6.788;2023-04-25T02:31:40;11.07;;;5.23;;
9102;SDS011;4587;51.434;6.788;2023-04-25T02:34:06;12.13;;;5.60;;
9102;SDS011;4587;51.434;6.788;2023-04-25T02:36:31;15.20;;;5.60;;
9102;SDS011;4587;51.434;6.788;2023-04-25T02:38:59;8.60;;;4.90;;
9102;SDS011;4587;51.434;6.788;2023-04-25T02:41:25;11.03;;;4.93;;
9102;SDS011;4587;51.434;6.788;2023-04-25T02:43:52;13.90;;;5.43;;
9102;SDS011;4587;51.434;6.788;2023-04-25T02:46:17;12.93;;;5.93;;
9102;SDS011;4587;51.434;6.788;2023-04-25T02:48:43;9.80;;;4.80;;
9102;SDS011;4587;51.434;6.788;2023-04-25T02:51:09;12.10;;;5.40;;
9102;SDS011;4587;51.434;6.788;2023-04-25T02:53:34;13.30;;;4.80;;
9102;SDS011;4587;51.434;6.788;2023-04-25T02:56:00;8.80;;;4.23;;
9102;SDS011;4587;51.434;6.788;2023-04-25T02:58:26;12.50;;;4.73;;
9102;SDS011;4587;51.434;6.788;2023-04-25T03:00:52;12.13;;;5.07;;
9102;SDS011;4587;51.434;6.788;2023-04-25T03:03:18;14.53;;;5.27;;
9102;SDS011;4587;51.434;6.788;2023-04-25T03:05:46;12.13;;;4.93;;
9102;SDS011;4587;51.434;6.788;2023-04-25T03:08:15;16.13;;;5.33;;
9102;SDS011;4587;51.434;6.788;2023-04-25T03:10:41;15.23;;;4.87;;
9102;SDS011;4587;51.434;6.788;2023-04-25T03:13:07;12.60;;;5.27;;
9102;SDS011;4587;51.434;6.788;2023-04-25T03:15:33;11.43;;;4.50;;
9102;SDS011;4587;51.434;6.788;2023-04-25T03:18:00;12.87;;;4.83;;
9102;SDS011;4587;51.434;6.788;2023-04-25T03:20:26;11.43;;;4.77;;
9102;SDS011;4587;51.434;6.788;2023-04-25T03:22:51;8.50;;;4.60;;
9102;SDS011;4587;51.434;6.788;2023-04-25T03:25:17;13.57;;;5.00;;
9102;SDS011;4587;51.434;6.788;2023-04-25T03:27:43;12.40;;;4.90;;
9102;SDS011;4587;51.434;6.788;2023-04-25T03:30:09;14.03;;;5.17;;
9102;SDS011;4587;51.434;6.788;2023-04-25T03:32:34;15.03;;;4.90;;
9102;SDS011;4587;51.434;6.788;2023-04-25T03:35:00;12.27;;;5.10;;
9102;SDS011;4587;51.434;6.788;2023-04-25T03:37:26;10.27;;;4.60;;
9102;SDS011;4587;51.434;6.788;2023-04-25T03:39:52;13.57;;;4.83;;
9102;SDS011;4587;51.434;6.788;2023-04-25T03:42:17;11.43;;;4.43;;
9102;SDS011;4587;51.434;6.788;2023-04-25T03:44:43;15.60;;;5.20;;
9102;SDS011;4587;51.434;6.788;2023-04-25T03:47:09;14.97;;;4.87;;
9102;SDS011;4587;51.434;6.788;2023-04-25T03:49:34;14.77;;;5.40;;
9102;SDS011;4587;51.434;6.788;2023-04-25T03:52:01;14.47;;;4.90;;
9102;SDS011;4587;51.434;6.788;2023-04-25T03:54:27;14.43;;;5.00;;
9102;SDS011;4587;51.434;6.788;2023-04-25T03:56:53;13.17;;;4.93;;
9102;SDS011;4587;51.434;6.788;2023-04-25T03:59:18;14.20;;;5.53;;
9102;SDS011;4587;51.434;6.788;2023-04-25T04:01:44;12.37;;;4.50;;
9102;SDS011;4587;51.434;6.788;2023-04-25T04:04:09;12.90;;;4.87;;
9102;SDS011;4587;51.434;6.788;2023-04-25T04:06:35;17.27;;;5.20;;
9102;SDS011;4587;51.434;6.788;2023-04-25T04:09:01;9.83;;;4.40;;
9102;SDS011;4587;51.434;6.788;2023-04-25T04:11:28;14.53;;;4.97;;
9102;SDS011;4587;51.434;6.788;2023-04-25T04:13:54;13.43;;;5.03;;
9102;SDS011;4587;51.434;6.788;2023-04-25T04:16:19;10.53;;;4.63;;
9102;SDS011;4587;51.434;6.788;2023-04-25T04:18:45;13.27;;;4.87;;
9102;SDS011;4587;51.434;6.788;2023-04-25T04:21:11;18.00;;;5.43;;
9102;SDS011;4587;51.434;6.788;2023-04-25T04:23:37;12.43;;;4.97;;
9102;SDS011;4587;51.434;6.788;2023-04-25T04:26:03;16.53;;;5.50;;
9102;SDS011;4587;51.434;6.788;2023-04-25T04:28:28;16.77;;;4.80;;
9102;SDS011;4587;51.434;6.788;2023-04-25T04:30:54;17.60;;;5.63;;
9102;SDS011;4587;51.434;6.788;2023-04-25T04:33:20;14.67;;;5.23;;
9102;SDS011;4587;51.434;6.788;2023-04-25T04:35:46;10.03;;;4.83;;
9102;SDS011;4587;51.434;6.788;2023-04-25T04:38:12;15.83;;;5.47;;
9102;SDS011;4587;51.434;6.788;2023-04-25T04:40:40;18.97;;;5.87;;
9102;SDS011;4587;51.434;6.788;2023-04-25T04:43:08;15.90;;;5.47;;
9102;SDS011;4587;51.434;6.788;2023-04-25T04:45:35;17.70;;;5.93;;
9102;SDS011;4587;51.434;6.788;2023-04-25T04:48:04;15.03;;;5.23;;
9102;SDS011;4587;51.434;6.788;2023-04-25T04:50:33;18.17;;;5.83;;
9102;SDS011;4587;51.434;6.788;2023-04-25T04:53:00;19.00;;;6.20;;
9102;SDS011;4587;51.434;6.788;2023-04-25T04:55:27;16.40;;;5.73;;
9102;SDS011;4587;51.434;6.788;2023-04-25T04:57:52;15.73;;;6.33;;
9102;SDS011;4587;51.434;6.788;2023-04-25T05:00:18;16.07;;;5.97;;
9102;SDS011;4587;51.434;6.788;2023-04-25T05:02:45;21.37;;;6.00;;
9102;SDS011;4587;51.434;6.788;2023-04-25T05:05:11;17.97;;;5.90;;
9102;SDS011;4587;51.434;6.788;2023-04-25T05:07:36;18.53;;;6.23;;
9102;SDS011;4587;51.434;6.788;2023-04-25T05:10:02;15.77;;;5.87;;
9102;SDS011;4587;51.434;6.788;2023-04-25T05:12:29;19.40;;;6.03;;
9102;SDS011;4587;51.434;6.788;2023-04-25T05:14:55;16.07;;;6.10;;
9102;SDS011;4587;51.434;6.788;2023-04-25T05:17:21;15.70;;;6.27;;
9102;SDS011;4587;51.434;6.788;2023-04-25T05:19:46;17.60;;;5.90;;
9102;SDS011;4587;51.434;6.788;2023-04-25T05:22:12;14.63;;;6.37;;
9102;SDS011;4587;51.434;6.788;2023-04-25T05:24:38;17.20;;;6.30;;
9102;SDS011;4587;51.434;6.788;2023-04-25T05:27:04;19.13;;;6.43;;
9102;SDS011;4587;51.434;6.788;2023-04-25T05:29:30;17.77;;;6.33;;
9102;SDS011;4587;51.434;6.788;2023-04-25T05:31:56;14.30;;;5.90;;
9102;SDS011;4587;51.434;6.788;2023-04-25T05:34:21;19.97;;;5.67;;
9102;SDS011;4587;51.434;6.788;2023-04-25T05:36:47;14.13;;;5.77;;
9102;SDS011;4587;51.434;6.788;2023-04-25T05:39:15;20.63;;;5.80;;
9102;SDS011;4587;51.434;6.788;2023-04-25T05:41:41;17.27;;;5.67;;
9102;SDS011;4587;51.434;6.788;2023-04-25T05:44:10;17.20;;;5.40;;
9102;SDS011;4587;51.434;6.788;2023-04-25T05:46:36;19.80;;;5.93;;
9102;SDS011;4587;51.434;6.788;2023-04-25T05:49:02;15.73;;;5.30;;
9102;SDS011;4587;51.434;6.788;2023-04-25T05:51:28;13.73;;;5.13;;
9102;SDS011;4587;51.434;6.788;2023-04-25T05:53:54;13.23;;;5.67;;
9102;SDS011;4587;51.434;6.788;2023-04-25T05:56:20;13.73;;;5.10;;
9102;SDS011;4587;51.434;6.788;2023-04-25T05:58:45;19.67;;;5.83;;
9102;SDS011;4587;51.434;6.788;2023-04-25T06:01:12;22.77;;;5.77;;
9102;SDS011;4587;51.434;6.788;2023-04-25T06:03:37;12.67;;;5.30;;
9102;SDS011;4587;51.434;6.788;2023-04-25T06:06:03;13.80;;;5.10;;
9102;SDS011;4587;51.434;6.788;2023-04-25T06:08:29;13.80;;;5.83;;
9102;SDS011;4587;51.434;6.788;2023-04-25T06:10:55;14.77;;;5.43;;
9102;SDS011;4587;51.434;6.788;2023-04-25T06:13:21;16.90;;;5.80;;
9102;SDS011;4587;51.434;6.788;2023-04-25T06:15:46;18.40;;;6.10;;
9102;SDS011;4587;51.434;6.788;2023-04-25T06:18:12;17.77;;;4.97;;
9102;SDS011;4587;51.434;6.788;2023-04-25T06:20:37;15.57;;;5.83;;
9102;SDS011;4587;51.434;6.788;2023-04-25T06:23:03;19.67;;;5.83;;
9102;SDS011;4587;51.434;6.788;2023-04-25T06:25:29;19.67;;;5.80;;
9102;SDS011;4587;51.434;6.788;2023-04-25T06:27:55;19.73;;;5.60;;
9102;SDS011;4587;51.434;6.788;2023-04-25T06:30:21;17.97;;;4.90;;
9102;SDS011;4587;51.434;6.788;2023-04-25T06:32:53;16.30;;;4.40;;
9102;SDS011;4587;51.434;6.788;2023-04-25T06:35:19;13.73;;;4.57;;
9102;SDS011;4587;51.434;6.788;2023-04-25T06:37:45;14.53;;;4.63;;
9102;SDS011;4587;51.434;6.788;2023-04-25T06:40:10;14.33;;;4.70;;
9102;SDS011;4587;51.434;6.788;2023-04-25T06:42:36;15.57;;;5.20;;
9102;SDS011;4587;51.434;6.788;2023-04-25T06:45:02;13.83;;;8.00;;
9102;SDS011;4587;51.434;6.788;2023-04-25T06:47:28;16.00;;;7.37;;
9102;SDS011;4587;51.434;6.788;2023-04-25T06:49:55;14.80;;;5.43;;
9102;SDS011;4587;51.434;6.788;2023-04-25T06:52:20;13.40;;;3.90;;
9102;SDS011;4587;51.434;6.788;2023-04-25T06:54:46;11.47;;;3.60;;
9102;SDS011;4587;51.434;6.788;2023-04-25T06:57:12;8.43;;;3.30;;
9102;SDS011;4587;51.434;6.788;2023-04-25T06:59:38;12.30;;;3.60;;
9102;SDS011;4587;51.434;6.788;2023-04-25T07:02:03;10.20;;;3.60;;
9102;SDS011;4587;51.434;6.788;2023-04-25T07:04:29;13.07;;;3.70;;
9102;SDS011;4587;51.434;6.788;2023-04-25T07:06:55;11.30;;;3.30;;
9102;SDS011;4587;51.434;6.788;2023-04-25T07:09:21;13.10;;;4.53;;
9102;SDS011;4587;51.434;6.788;2023-04-25T07:11:47;12.50;;;4.20;;
9102;SDS011;4587;51.434;6.788;2023-04-25T07:14:13;10.67;;;4.03;;
9102;SDS011;4587;51.434;6.788;2023-04-25T07:16:39;11.67;;;4.23;;
9102;SDS011;4587;51.434;6.788;2023-04-25T07:19:04;14.20;;;4.50;;
9102;SDS011;4587;51.434;6.788;2023-04-25T07:21:30;14.63;;;4.93;;
9102;SDS011;4587;51.434;6.788;2023-04-25T07:23:56;14.00;;;5.20;;
9102;SDS011;4587;51.434;6.788;2023-04-25T07:26:22;19.87;;;5.47;;
9102;SDS011;4587;51.434;6.788;2023-04-25T07:28:48;15.60;;;5.40;;
9102;SDS011;4587;51.434;6.788;2023-04-25T07:31:16;12.83;;;5.27;;
9102;SDS011;4587;51.434;6.788;2023-04-25T07:33:43;12.90;;;5.63;;
9102;SDS011;4587;51.434;6.788;2023-04-25T07:36:10;12.03;;;5.37;;
9102;SDS011;4587;51.434;6.788;2023-04-25T07:38:37;9.60;;;4.50;;
9102;SDS011;4587;51.434;6.788;2023-04-25T07:41:03;17.00;;;5.10;;
9102;SDS011;4587;51.434;6.788;2023-04-25T07:43:29;14.97;;;4.90;;
9102;SDS011;4587;51.434;6.788;2023-04-25T07:45:56;13.70;;;5.30;;
9102;SDS011;4587;51.434;6.788;2023-04-25T07:48:22;11.13;;;4.50;;
9102;SDS011;4587;51.434;6.788;2023-04-25T07:50:48;11.63;;;4.20;;
9102;SDS011;4587;51.434;6.788;2023-04-25T07:53:14;12.30;;;4.33;;
9102;SDS011;4587;51.434;6.788;2023-04-25T07:55:39;14.60;;;5.50;;
9102;SDS011;4587;51.434;6.788;2023-04-25T07:58:08;15.17;;;5.17;;
9102;SDS011;4587;51.434;6.788;2023-04-25T08:00:35;13.33;;;4.43;;
9102;SDS011;4587;51.434;6.788;2023-04-25T08:03:01;13.43;;;4.63;;
9102;SDS011;4587;51.434;6.788;2023-04-25T08:05:27;11.87;;;4.40;;
9102;SDS011;4587;51.434;6.788;2023-04-25T08:07:53;10.77;;;4.70;;
9102;SDS011;4587;51.434;6.788;2023-04-25T08:10:19;9.40;;;4.77;;
9102;SDS011;4587;51.434;6.788;2023-04-25T08:12:45;12.97;;;4.57;;
9102;SDS011;4587;51.434;6.788;2023-04-25T08:15:11;14.33;;;4.90;;
9102;SDS011;4587;51.434;6.788;2023-04-25T08:17:38;13.97;;;4.40;;
9102;SDS011;4587;51.434;6.788;2023-04-25T08:20:04;13.07;;;4.60;;
9102;SDS011;4587;51.434;6.788;2023-04-25T08:22:31;14.50;;;4.90;;
9102;SDS011;4587;51.434;6.788;2023-04-25T08:24:56;10.93;;;4.20;;
9102;SDS011;4587;51.434;6.788;2023-04-25T08:27:22;13.27;;;4.43;;
9102;SDS011;4587;51.434;6.788;2023-04-25T08:29:48;17.47;;;4.63;;
9102;SDS011;4587;51.434;6.788;2023-04-25T08:32:15;18.57;;;4.87;;
9102;SDS011;4587;51.434;6.788;2023-04-25T08:34:41;13.13;;;4.13;;
9102;SDS011;4587;51.434;6.788;2023-04-25T08:37:08;15.27;;;4.70;;
9102;SDS011;4587;51.434;6.788;2023-04-25T08:39:35;13.07;;;4.10;;
9102;SDS011;4587;51.434;6.788;2023-04-25T08:42:02;15.47;;;4.17;;
9102;SDS011;4587;51.434;6.788;2023-04-25T08:44:34;12.27;;;4.43;;
9102;SDS011;4587;51.434;6.788;2023-04-25T08:47:01;13.23;;;3.07;;
9102;SDS011;4587;51.434;6.788;2023-04-25T08:49:28;10.43;;;2.90;;
9102;SDS011;4587;51.434;6.788;2023-04-25T08:51:56;6.80;;;2.73;;
9102;SDS011;4587;51.434;6.788;2023-04-25T08:54:26;8.77;;;2.53;;
9102;SDS011;4587;51.434;6.788;2023-04-25T08:56:53;6.93;;;2.33;;
9102;SDS011;4587;51.434;6.788;2023-04-25T08:59:20;8.43;;;2.20;;
9102;SDS011;4587;51.434;6.788;2023-04-25T09:01:48;6.40;;;2.00;;
9102;SDS011;4587;51.434;6.788;2023-04-25T09:04:14;8.03;;;2.43;;
9102;SDS011;4587;51.434;6.788;2023-04-25T09:06:40;8.87;;;2.60;;
9102;SDS011;4587;51.434;6.788;2023-04-25T09:09:07;6.67;;;2.30;;
9102;SDS011;4587;51.434;6.788;2023-04-25T09:11:35;7.80;;;2.37;;
9102;SDS011;4587;51.434;6.788;2023-04-25T09:14:20;7.83;;;2.20;;
9102;SDS011;4587;51.434;6.788;2023-04-25T09:16:57;10.63;;;2.80;;
9102;SDS011;4587;51.434;6.788;2023-04-25T09:21:54;7.67;;;2.80;;
9102;SDS011;4587;51.434;6.788;2023-04-25T09:24:32;11.97;;;2.87;;
9102;SDS011;4587;51.434;6.788;2023-04-25T09:27:13;7.80;;;2.90;;
9102;SDS011;4587;51.434;6.788;2023-04-25T09:29:44;9.07;;;2.87;;
9102;SDS011;4587;51.434;6.788;2023-04-25T09:39:46;6.63;;;1.80;;
9102;SDS011;4587;51.434;6.788;2023-04-25T09:42:13;5.20;;;2.07;;
9102;SDS011;4587;51.434;6.788;2023-04-25T09:44:46;5.53;;;1.93;;
9102;SDS011;4587;51.434;6.788;2023-04-25T09:47:14;6.83;;;1.90;;
9102;SDS011;4587;51.434;6.788;2023-04-25T09:49:42;8.33;;;2.17;;
9102;SDS011;4587;51.434;6.788;2023-04-25T09:52:08;7.73;;;2.20;;
9102;SDS011;4587;51.434;6.788;2023-04-25T09:54:37;5.23;;;1.93;;
9102;SDS011;4587;51.434;6.788;2023-04-25T09:57:10;8.30;;;2.00;;
9102;SDS011;4587;51.434;6.788;2023-04-25T09:59:44;4.97;;;1.90;;
9102;SDS011;4587;51.434;6.788;2023-04-25T10:02:11;6.80;;;1.57;;
9102;SDS011;4587;51.434;6.788;2023-04-25T10:04:38;5.37;;;1.90;;
9102;SDS011;4587;51.434;6.788;2023-04-25T10:07:06;5.60;;;1.97;;
9102;SDS011;4587;51.434;6.788;2023-04-25T10:09:33;7.60;;;1.53;;
9102;SDS011;4587;51.434;6.788;2023-04-25T10:12:02;4.87;;;1.50;;
9102;SDS011;4587;51.434;6.788;2023-04-25T10:14:31;6.90;;;1.60;;
9102;SDS011;4587;51.434;6.788;2023-04-25T10:16:57;4.03;;;1.27;;
9102;SDS011;4587;51.434;6.788;2023-04-25T10:19:24;7.80;;;1.93;;
9102;SDS011;4587;51.434;6.788;2023-04-25T10:21:55;6.63;;;1.50;;
9102;SDS011;4587;51.434;6.788;2023-04-25T10:24:22;4.93;;;1.60;;
9102;SDS011;4587;51.434;6.788;2023-04-25T10:26:49;4.70;;;1.60;;
9102;SDS011;4587;51.434;6.788;2023-04-25T10:29:25;4.53;;;1.80;;
9102;SDS011;4587;51.434;6.788;2023-04-25T10:31:51;5.27;;;1.60;;
9102;SDS011;4587;51.434;6.788;2023-04-25T10:34:17;4.67;;;1.40;;
9102;SDS011;4587;51.434;6.788;2023-04-25T10:36:51;4.83;;;1.83;;
9102;SDS011;4587;51.434;6.788;2023-04-25T10:39:21;5.80;;;1.57;;
9102;SDS011;4587;51.434;6.788;2023-04-25T10:41:58;5.00;;;1.50;;
9102;SDS011;4587;51.434;6.788;2023-04-25T10:44:27;4.37;;;1.43;;
9102;SDS011;4587;51.434;6.788;2023-04-25T10:46:58;3.73;;;1.80;;
9102;SDS011;4587;51.434;6.788;2023-04-25T10:54:41;6.67;;;1.60;;
9102;SDS011;4587;51.434;6.788;2023-04-25T10:57:07;5.83;;;1.80;;
9102;SDS011;4587;51.434;6.788;2023-04-25T10:59:33;4.57;;;1.60;;
9102;SDS011;4587;51.434;6.788;2023-04-25T11:01:58;7.70;;;1.73;;
9102;SDS011;4587;51.434;6.788;2023-04-25T11:09:33;3.07;;;1.33;;
9102;SDS011;4587;51.434;6.788;2023-04-25T11:12:00;6.23;;;1.73;;
9102;SDS011;4587;51.434;6.788;2023-04-25T11:14:26;7.40;;;2.17;;
9102;SDS011;4587;51.434;6.788;2023-04-25T11:16:55;7.00;;;1.80;;
9102;SDS011;4587;51.434;6.788;2023-04-25T11:19:22;6.53;;;1.83;;
9102;SDS011;4587;51.434;6.788;2023-04-25T11:21:49;5.77;;;1.70;;
9102;SDS011;4587;51.434;6.788;2023-04-25T11:24:19;6.63;;;1.93;;
9102;SDS011;4587;51.434;6.788;2023-04-25T11:26:50;5.40;;;1.90;;
9102;SDS011;4587;51.434;6.788;2023-04-25T11:29:15;5.47;;;1.77;;
9102;SDS011;4587;51.434;6.788;2023-04-25T11:31:44;8.43;;;1.90;;
9102;SDS011;4587;51.434;6.788;2023-04-25T11:34:10;6.67;;;2.13;;
9102;SDS011;4587;51.434;6.788;2023-04-25T11:36:36;5.20;;;2.40;;
9102;SDS011;4587;51.434;6.788;2023-04-25T11:39:04;8.07;;;2.10;;
9102;SDS011;4587;51.434;6.788;2023-04-25T11:41:31;8.43;;;2.20;;
9102;SDS011;4587;51.434;6.788;2023-04-25T11:43:56;5.70;;;2.40;;
9102;SDS011;4587;51.434;6.788;2023-04-25T11:46:22;7.70;;;2.27;;
9102;SDS011;4587;51.434;6.788;2023-04-25T11:48:48;6.30;;;2.60;;
9102;SDS011;4587;51.434;6.788;2023-04-25T11:51:18;9.13;;;2.63;;
9102;SDS011;4587;51.434;6.788;2023-04-25T11:53:44;8.13;;;2.10;;
9102;SDS011;4587;51.434;6.788;2023-04-25T11:56:10;8.20;;;2.50;;
9102;SDS011;4587;51.434;6.788;2023-04-25T12:01:49;7.70;;;2.10;;
9102;SDS011;4587;51.434;6.788;2023-04-25T12:04:16;11.00;;;2.20;;
9102;SDS011;4587;51.434;6.788;2023-04-25T12:06:52;6.33;;;2.17;;
9102;SDS011;4587;51.434;6.788;2023-04-25T12:09:19;6.90;;;2.10;;
9102;SDS011;4587;51.434;6.788;2023-04-25T12:11:52;6.73;;;1.97;;
9102;SDS011;4587;51.434;6.788;2023-04-25T12:14:23;4.53;;;1.90;;
9102;SDS011;4587;51.434;6.788;2023-04-25T12:16:52;5.93;;;2.17;;
9102;SDS011;4587;51.434;6.788;2023-04-25T12:19:19;6.37;;;2.23;;
9102;SDS011;4587;51.434;6.788;2023-04-25T12:21:46;5.90;;;2.13;;
9102;SDS011;4587;51.434;6.788;2023-04-25T12:24:14;7.03;;;2.30;;
9102;SDS011;4587;51.434;6.788;2023-04-25T12:27:25;7.43;;;2.43;;
9102;SDS011;4587;51.434;6.788;2023-04-25T12:29:35;7.63;;;2.50;;
9102;SDS011;4587;51.434;6.788;2023-04-25T12:32:00;5.40;;;2.30;;
9102;SDS011;4587;51.434;6.788;2023-04-25T12:34:27;5.57;;;2.10;;
9102;SDS011;4587;51.434;6.788;2023-04-25T12:36:53;4.30;;;1.77;;
9102;SDS011;4587;51.434;6.788;2023-04-25T12:39:20;7.43;;;1.80;;
9102;SDS011;4587;51.434;6.788;2023-04-25T12:41:47;4.03;;;1.43;;
9102;SDS011;4587;51.434;6.788;2023-04-25T12:44:14;5.37;;;1.77;;
9102;SDS011;4587;51.434;6.788;2023-04-25T12:46:40;3.47;;;1.57;;
9102;SDS011;4587;51.434;6.788;2023-04-25T12:49:06;5.77;;;1.80;;
9102;SDS011;4587;51.434;6.788;2023-04-25T12:51:36;7.80;;;2.40;;
9102;SDS011;4587;51.434;6.788;2023-04-25T12:54:02;5.50;;;1.80;;
9102;SDS011;4587;51.434;6.788;2023-04-25T12:56:29;5.10;;;1.70;;
9102;SDS011;4587;51.434;6.788;2023-04-25T12:58:58;5.43;;;1.60;;
9102;SDS011;4587;51.434;6.788;2023-04-25T13:01:24;5.60;;;1.90;;
9102;SDS011;4587;51.434;6.788;2023-04-25T13:03:51;4.43;;;1.63;;
9102;SDS011;4587;51.434;6.788;2023-04-25T13:06:21;6.40;;;2.00;;
9102;SDS011;4587;51.434;6.788;2023-04-25T13:08:47;5.00;;;1.70;;
9102;SDS011;4587;51.434;6.788;2023-04-25T13:11:13;4.37;;;1.60;;
9102;SDS011;4587;51.434;6.788;2023-04-25T13:13:42;6.73;;;1.80;;
9102;SDS011;4587;51.434;6.788;2023-04-25T13:16:09;6.47;;;1.80;;
9102;SDS011;4587;51.434;6.788;2023-04-25T13:18:35;5.63;;;1.77;;
9102;SDS011;4587;51.434;6.788;2023-04-25T13:21:00;6.00;;;1.70;;
9102;SDS011;4587;51.434;6.788;2023-04-25T13:23:27;6.90;;;1.80;;
9102;SDS011;4587;51.434;6.788;2023-04-25T13:25:53;4.87;;;1.90;;
9102;SDS011;4587;51.434;6.788;2023-04-25T13:28:20;7.90;;;1.80;;
9102;SDS011;4587;51.434;6.788;2023-04-25T13:30:46;6.07;;;1.90;;
9102;SDS011;4587;51.434;6.788;2023-04-25T13:33:13;6.97;;;1.90;;
9102;SDS011;4587;51.434;6.788;2023-04-25T13:35:39;8.00;;;2.17;;
9102;SDS011;4587;51.434;6.788;2023-04-25T13:38:05;3.23;;;1.40;;
9102;SDS011;4587;51.434;6.788;2023-04-25T13:40:30;5.63;;;1.63;;
9102;SDS011;4587;51.434;6.788;2023-04-25T13:42:57;5.73;;;1.50;;
9102;SDS011;4587;51.434;6.788;2023-04-25T13:45:23;6.20;;;1.87;;
9102;SDS011;4587;51.434;6.788;2023-04-25T13:47:48;4.83;;;1.70;;
9102;SDS011;4587;51.434;6.788;2023-04-25T13:50:14;4.43;;;1.77;;
9102;SDS011;4587;51.434;6.788;2023-04-25T13:52:41;5.33;;;1.57;;
9102;SDS011;4587;51.434;6.788;2023-04-25T13:55:07;6.77;;;1.70;;
9102;SDS011;4587;51.434;6.788;2023-04-25T13:57:33;4.70;;;1.77;;
9102;SDS011;4587;51.434;6.788;2023-04-25T14:00:00;3.17;;;1.30;;
9102;SDS011;4587;51.434;6.788;2023-04-25T14:02:33;3.63;;;1.27;;
9102;SDS011;4587;51.434;6.788;2023-04-25T14:05:02;5.97;;;1.60;;
9102;SDS011;4587;51.434;6.788;2023-04-25T14:07:29;6.30;;;1.60;;
9102;SDS011;4587;51.434;6.788;2023-04-25T14:09:55;4.70;;;1.20;;
9102;SDS011;4587;51.434;6.788;2023-04-25T14:12:22;3.97;;;1.40;;
9102;SDS011;4587;51.434;6.788;2023-04-25T14:14:48;4.93;;;1.43;;
9102;SDS011;4587;51.434;6.788;2023-04-25T14:17:14;5.33;;;1.43;;
9102;SDS011;4587;51.434;6.788;2023-04-25T14:19:40;5.40;;;1.27;;
9102;SDS011;4587;51.434;6.788;2023-04-25T14:22:10;4.80;;;1.30;;
9102;SDS011;4587;51.434;6.788;2023-04-25T14:24:36;4.13;;;1.50;;
9102;SDS011;4587;51.434;6.788;2023-04-25T14:27:03;2.63;;;1.60;;
9102;SDS011;4587;51.434;6.788;2023-04-25T14:29:29;4.50;;;1.50;;
9102;SDS011;4587;51.434;6.788;2023-04-25T14:31:54;3.80;;;1.30;;
9102;SDS011;4587;51.434;6.788;2023-04-25T14:34:22;5.40;;;1.43;;
9102;SDS011;4587;51.434;6.788;2023-04-25T14:36:48;2.40;;;1.27;;
9102;SDS011;4587;51.434;6.788;2023-04-25T14:39:13;5.47;;;1.20;;
9102;SDS011;4587;51.434;6.788;2023-04-25T14:41:39;3.90;;;1.50;;
9102;SDS011;4587;51.434;6.788;2023-04-25T14:44:05;7.30;;;1.83;;
9102;SDS011;4587;51.434;6.788;2023-04-25T14:46:31;6.50;;;1.63;;
9102;SDS011;4587;51.434;6.788;2023-04-25T14:48:56;6.83;;;1.53;;
9102;SDS011;4587;51.434;6.788;2023-04-25T14:51:22;6.43;;;1.60;;
9102;SDS011;4587;51.434;6.788;2023-04-25T14:53:48;4.27;;;1.27;;
9102;SDS011;4587;51.434;6.788;2023-04-25T14:56:14;4.73;;;1.40;;
9102;SDS011;4587;51.434;6.788;2023-04-25T14:58:39;8.17;;;1.77;;
9102;SDS011;4587;51.434;6.788;2023-04-25T15:01:05;5.97;;;1.87;;
9102;SDS011;4587;51.434;6.788;2023-04-25T15:03:32;4.20;;;1.67;;
9102;SDS011;4587;51.434;6.788;2023-04-25T15:05:57;4.83;;;1.50;;
9102;SDS011;4587;51.434;6.788;2023-04-25T15:08:23;2.97;;;1.17;;
9102;SDS011;4587;51.434;6.788;2023-04-25T15:10:49;6.67;;;1.60;;
9102;SDS011;4587;51.434;6.788;2023-04-25T15:13:15;5.63;;;1.60;;
9102;SDS011;4587;51.434;6.788;2023-04-25T15:15:43;5.10;;;1.47;;
9102;SDS011;4587;51.434;6.788;2023-04-25T15:18:08;4.43;;;1.40;;
9102;SDS011;4587;51.434;6.788;2023-04-25T15:20:34;3.67;;;1.40;;
9102;SDS011;4587;51.434;6.788;2023-04-25T15:23:00;6.07;;;1.70;;
9102;SDS011;4587;51.434;6.788;2023-04-25T15:25:28;3.80;;;1.53;;
9102;SDS011;4587;51.434;6.788;2023-04-25T15:27:54;5.93;;;1.70;;